createdAt,value
2023-01-22T00:04:23.831Z,3.33
2023-01-22T00:06:50.367Z,3.82
2023-01-22T00:09:16.944Z,3.60
2023-01-22T00:11:43.494Z,3.43
2023-01-22T00:14:10.220Z,3.12
2023-01-22T00:16:36.870Z,3.09
2023-01-22T00:19:03.434Z,3.39
2023-01-22T00:21:29.997Z,3.47
2023-01-22T00:23:56.561Z,3.52
2023-01-22T00:26:25.621Z,3.67
2023-01-22T00:31:45.152Z,3.36
2023-01-22T00:34:11.939Z,3.62
2023-01-22T00:36:41.132Z,3.74
2023-01-22T00:39:09.031Z,3.68
2023-01-22T00:42:03.653Z,3.36
2023-01-22T00:44:51.965Z,3.67
2023-01-22T00:47:18.596Z,3.97
2023-01-22T00:49:45.143Z,4.20
2023-01-22T00:52:11.729Z,4.21
2023-01-22T00:54:38.525Z,4.05
2023-01-22T00:57:05.274Z,3.58
2023-01-22T00:59:32.498Z,3.70
2023-01-22T01:01:59.179Z,3.64
2023-01-22T01:04:25.729Z,3.82
2023-01-22T01:06:52.504Z,4.12
2023-01-22T01:09:19.153Z,4.24
2023-01-22T01:11:46.881Z,4.11
2023-01-22T01:14:25.439Z,3.90
2023-01-22T01:16:52.109Z,3.75
2023-01-22T01:19:20.555Z,3.82
2023-01-22T01:21:47.426Z,3.94
2023-01-22T01:24:19.417Z,3.86
2023-01-22T01:27:33.723Z,3.93
2023-01-22T01:30:11.096Z,3.34
2023-01-22T01:32:37.960Z,3.60
2023-01-22T01:35:05.538Z,3.86
2023-01-22T01:37:32.424Z,3.35
2023-01-22T01:39:58.957Z,3.28
2023-01-22T01:42:39.017Z,3.65
2023-01-22T01:45:29.311Z,3.83
2023-01-22T01:48:16.121Z,4.21
2023-01-22T01:50:45.060Z,3.65
2023-01-22T01:53:11.685Z,3.38
2023-01-22T01:56:03.536Z,3.21
2023-01-22T01:58:47.249Z,3.14
2023-01-22T02:01:18.050Z,3.06
2023-01-22T02:03:49.165Z,3.12
2023-01-22T02:06:22.111Z,3.55
2023-01-22T02:08:50.490Z,3.26
2023-01-22T02:11:19.039Z,3.24
2023-01-22T02:13:51.491Z,3.25
2023-01-22T02:16:18.906Z,3.03
2023-01-22T02:18:45.558Z,3.48
2023-01-22T02:21:43.314Z,3.33
2023-01-22T02:24:13.284Z,3.13
2023-01-22T02:27:00.004Z,2.79
2023-01-22T02:29:39.754Z,2.77
2023-01-22T02:32:06.556Z,3.04
2023-01-22T02:34:33.439Z,2.45
2023-01-22T02:37:01.139Z,2.36
2023-01-22T02:39:52.728Z,2.72
2023-01-22T02:42:47.239Z,2.80
2023-01-22T02:45:13.910Z,2.94
2023-01-22T02:47:40.734Z,2.18
2023-01-22T02:50:08.154Z,2.51
2023-01-22T02:52:34.786Z,2.81
2023-01-22T02:55:01.317Z,2.71
2023-01-22T02:57:30.298Z,2.80
2023-01-22T02:59:57.537Z,2.83
2023-01-22T03:02:25.520Z,2.99
2023-01-22T03:05:03.145Z,3.16
2023-01-22T03:07:44.908Z,3.06
2023-01-22T03:10:35.790Z,2.96
2023-01-22T03:13:45.076Z,2.87
2023-01-22T03:16:30.200Z,2.48
2023-01-22T03:19:15.469Z,2.59
2023-01-22T03:21:43.967Z,2.68
2023-01-22T03:24:10.627Z,2.78
2023-01-22T03:26:37.169Z,2.90
2023-01-22T03:29:18.791Z,2.57
2023-01-22T03:31:48.441Z,2.88
2023-01-22T03:34:16.889Z,2.65
2023-01-22T03:36:43.782Z,2.77
2023-01-22T03:39:44.472Z,2.59
2023-01-22T03:42:32.761Z,2.84
2023-01-22T03:44:59.301Z,2.96
2023-01-22T03:47:25.883Z,3.25
2023-01-22T03:49:52.517Z,3.31
2023-01-22T03:52:19.044Z,2.88
2023-01-22T03:54:45.587Z,3.02
2023-01-22T03:57:30.812Z,3.13
2023-01-22T04:00:02.070Z,3.12
2023-01-22T04:02:29.118Z,3.14
2023-01-22T04:04:55.766Z,3.12
2023-01-22T04:08:31.219Z,3.16
2023-01-22T04:11:28.818Z,3.04
2023-01-22T04:13:56.556Z,3.09
2023-01-22T04:16:23.377Z,3.14
2023-01-22T04:18:50.164Z,3.26
2023-01-22T04:21:16.743Z,3.19
2023-01-22T04:23:43.311Z,2.95
2023-01-22T04:26:09.905Z,2.96
2023-01-22T04:28:36.443Z,3.10
2023-01-22T04:31:04.752Z,3.26
2023-01-22T04:33:31.952Z,3.37
2023-01-22T04:35:58.617Z,3.24
2023-01-22T04:38:25.229Z,3.46
2023-01-22T04:40:51.781Z,3.44
2023-01-22T04:43:18.396Z,3.68
2023-01-22T04:45:45.129Z,3.75
2023-01-22T04:48:12.748Z,3.26
2023-01-22T04:50:39.328Z,3.50
2023-01-22T04:53:05.909Z,3.64
2023-01-22T04:55:32.599Z,3.60
2023-01-22T04:58:57.909Z,3.80
2023-01-22T05:01:44.535Z,3.88
2023-01-22T05:04:11.341Z,3.90
2023-01-22T05:06:37.922Z,3.65
2023-01-22T05:09:04.506Z,3.91
2023-01-22T05:11:31.036Z,3.90
2023-01-22T05:13:57.612Z,4.26
2023-01-22T05:19:13.083Z,4.01
2023-01-22T05:21:39.601Z,4.01
2023-01-22T05:24:06.520Z,4.10
2023-01-22T05:26:35.303Z,4.48
2023-01-22T05:29:01.898Z,4.60
2023-01-22T05:31:47.419Z,4.20
2023-01-22T05:37:10.497Z,4.70
2023-01-22T05:39:37.072Z,4.93
2023-01-22T05:42:03.747Z,4.30
2023-01-22T05:44:31.732Z,4.85
2023-01-22T05:47:09.430Z,4.90
2023-01-22T05:49:35.992Z,5.09
2023-01-22T05:52:02.574Z,5.14
2023-01-22T05:54:29.171Z,5.22
2023-01-22T05:56:55.820Z,5.24
2023-01-22T05:59:22.421Z,5.01
2023-01-22T06:02:04.199Z,4.94
2023-01-22T06:04:30.775Z,5.02
2023-01-22T06:06:57.479Z,4.94
2023-01-22T06:09:24.569Z,4.99
2023-01-22T06:12:13.117Z,4.45
2023-01-22T06:15:32.471Z,4.62
2023-01-22T06:18:02.251Z,4.43
2023-01-22T06:20:28.837Z,4.40
2023-01-22T06:22:55.596Z,4.48
2023-01-22T06:25:22.155Z,4.74
2023-01-22T06:27:48.673Z,4.07
2023-01-22T06:30:16.021Z,4.18
2023-01-22T06:50:25.148Z,3.93
2023-01-22T06:52:51.733Z,4.00
2023-01-22T06:55:18.398Z,4.30
2023-01-22T06:57:44.997Z,4.37
2023-01-22T07:00:11.900Z,4.16
2023-01-22T07:02:38.504Z,4.84
2023-01-22T07:12:55.537Z,4.68
2023-01-22T07:15:22.451Z,4.81
2023-01-22T07:17:52.685Z,4.66
2023-01-22T07:20:20.990Z,4.96
2023-01-22T07:22:47.559Z,5.41
2023-01-22T07:25:14.576Z,5.37
2023-01-22T07:27:41.301Z,5.42
2023-01-22T07:30:08.443Z,5.55
2023-01-22T07:32:50.419Z,5.15
2023-01-22T07:35:18.654Z,5.37
2023-01-22T07:37:51.725Z,5.15
2023-01-22T07:40:18.479Z,5.04
2023-01-22T07:43:26.692Z,5.05
2023-01-22T07:46:13.164Z,5.43
2023-01-22T07:48:39.725Z,5.41
2023-01-22T07:51:06.897Z,5.10
2023-01-22T07:53:34.750Z,5.15
2023-01-22T07:56:01.982Z,5.24
2023-01-22T07:58:30.678Z,5.23
2023-01-22T08:00:57.342Z,5.47
2023-01-22T08:03:24.068Z,5.53
2023-01-22T08:05:50.714Z,5.71
2023-01-22T08:08:20.528Z,5.54
2023-01-22T08:10:47.734Z,5.89
2023-01-22T08:13:14.871Z,5.99
2023-01-22T08:15:45.227Z,5.23
2023-01-22T08:18:11.904Z,5.13
2023-01-22T08:20:38.475Z,5.36
2023-01-22T08:23:05.229Z,5.55
2023-01-22T08:25:31.809Z,5.39
2023-01-22T08:28:02.851Z,5.20
2023-01-22T08:30:29.451Z,5.13
2023-01-22T08:32:58.107Z,5.62
2023-01-22T08:35:24.681Z,5.38
2023-01-22T08:37:51.308Z,4.95
2023-01-22T08:45:28.360Z,5.47
2023-01-22T08:47:59.872Z,5.48
2023-01-22T08:50:29.345Z,5.68
2023-01-22T08:52:57.674Z,5.54
2023-01-22T08:55:27.851Z,5.75
2023-01-22T08:57:57.657Z,5.65
2023-01-22T09:00:25.694Z,5.87
2023-01-22T09:02:59.829Z,5.97
2023-01-22T09:05:27.979Z,5.82
2023-01-22T09:07:54.675Z,5.96
2023-01-22T09:10:22.082Z,6.15
2023-01-22T09:12:48.862Z,5.52
2023-01-22T09:15:15.527Z,5.83
2023-01-22T09:17:42.583Z,5.94
2023-01-22T09:20:09.807Z,5.77
2023-01-22T09:22:36.767Z,5.79
2023-01-22T09:25:05.123Z,5.66
2023-01-22T09:27:31.884Z,5.43
2023-01-22T09:29:59.769Z,5.68
2023-01-22T09:32:26.385Z,5.84
2023-01-22T09:34:52.968Z,5.37
2023-01-22T09:37:20.273Z,5.29
2023-01-22T09:39:50.595Z,5.83
2023-01-22T09:42:31.678Z,6.30
2023-01-22T09:45:07.195Z,5.94
2023-01-22T09:47:49.495Z,5.73
2023-01-22T09:50:22.406Z,6.29
2023-01-22T09:52:52.751Z,5.85
2023-01-22T09:55:30.413Z,5.46
2023-01-22T09:58:01.943Z,5.53
2023-01-22T10:01:01.041Z,5.50
2023-01-22T10:03:41.995Z,5.74
2023-01-22T10:06:14.616Z,6.30
2023-01-22T10:09:09.767Z,6.43
2023-01-22T10:11:39.848Z,6.35
2023-01-22T10:14:12.630Z,6.57
2023-01-22T10:16:39.858Z,6.51
2023-01-22T10:19:32.953Z,6.28
2023-01-22T10:22:03.964Z,6.07
2023-01-22T10:24:30.640Z,6.20
2023-01-22T10:26:58.970Z,6.28
2023-01-22T10:29:32.149Z,6.63
2023-01-22T10:32:28.845Z,6.69
2023-01-22T10:35:20.824Z,6.22
2023-01-22T10:37:49.998Z,5.72
2023-01-22T10:40:38.354Z,6.04
2023-01-22T10:43:13.487Z,5.71
2023-01-22T10:45:54.736Z,5.91
2023-01-22T10:48:41.313Z,5.41
2023-01-22T10:51:17.828Z,5.63
2023-01-22T10:53:54.632Z,6.05
2023-01-22T10:56:46.322Z,6.22
2023-01-22T10:59:33.557Z,6.05
2023-01-22T11:02:03.591Z,5.79
2023-01-22T11:04:33.341Z,5.61
2023-01-22T11:07:07.040Z,6.40
2023-01-22T11:09:41.844Z,5.84
2023-01-22T11:12:40.371Z,5.62
2023-01-22T11:20:25.960Z,6.64
2023-01-22T11:23:10.978Z,6.56
2023-01-22T11:25:43.899Z,6.70
2023-01-22T11:28:28.381Z,6.51
2023-01-22T11:31:09.201Z,6.57
2023-01-22T11:34:22.129Z,6.95
2023-01-22T11:45:09.686Z,7.20
2023-01-22T11:48:00.481Z,7.25
2023-01-22T11:50:56.368Z,7.62
2023-01-22T11:53:48.362Z,7.16
2023-01-22T11:56:52.922Z,7.07
2023-01-22T11:59:46.384Z,7.44
2023-01-22T12:02:18.371Z,7.65
2023-01-22T12:05:11.733Z,7.38
2023-01-22T12:07:52.849Z,7.31
2023-01-22T12:10:26.512Z,7.63
2023-01-22T12:15:46.363Z,7.24
2023-01-22T12:18:28.041Z,7.14
2023-01-22T12:21:15.852Z,7.49
2023-01-22T12:23:54.292Z,6.72
2023-01-22T12:26:26.122Z,6.60
2023-01-22T12:29:33.395Z,6.81
2023-01-22T12:32:13.870Z,7.02
2023-01-22T12:35:08.984Z,7.23
2023-01-22T12:37:44.286Z,7.55
2023-01-22T12:40:34.888Z,7.22
2023-01-22T12:43:03.898Z,7.25
2023-01-22T12:45:33.203Z,6.86
2023-01-22T12:48:22.324Z,7.21
2023-01-22T12:50:56.229Z,7.47
2023-01-22T12:53:30.047Z,6.92
2023-01-22T12:56:12.019Z,7.57
2023-01-22T13:01:35.988Z,7.28
2023-01-22T13:04:08.093Z,7.55
2023-01-22T13:06:40.845Z,7.34
2023-01-22T13:09:25.058Z,7.28
2023-01-22T13:11:51.688Z,7.75
2023-01-22T13:14:30.920Z,7.46
2023-01-22T13:17:03.659Z,7.72
2023-01-22T13:19:42.371Z,7.72
2023-01-22T13:22:28.438Z,7.38
2023-01-22T13:24:57.714Z,7.52
2023-01-22T13:27:33.935Z,6.98
2023-01-22T13:30:28.000Z,7.31
2023-01-22T13:33:15.605Z,7.59
2023-01-22T13:35:44.322Z,7.82
2023-01-22T13:38:28.887Z,7.68
2023-01-22T13:41:09.167Z,7.79
2023-01-22T13:43:38.584Z,7.78
2023-01-22T13:46:05.850Z,7.57
2023-01-22T13:48:32.719Z,7.61
2023-01-22T13:51:04.733Z,7.63
2023-01-22T13:53:35.320Z,7.91
2023-01-22T13:56:02.134Z,8.13
2023-01-22T13:58:49.530Z,8.21
2023-01-22T14:01:32.583Z,8.39
2023-01-22T14:04:06.921Z,8.33
2023-01-22T14:06:49.552Z,7.73
2023-01-22T14:09:31.635Z,7.69
2023-01-22T14:11:59.408Z,7.83
2023-01-22T14:14:26.724Z,8.16
2023-01-22T14:16:53.548Z,8.25
2023-01-22T14:19:20.143Z,8.26
2023-01-22T14:21:46.697Z,8.31
2023-01-22T14:27:02.291Z,8.50
2023-01-22T14:29:28.842Z,8.53
2023-01-22T14:31:55.579Z,8.52
2023-01-22T14:34:22.423Z,8.16
2023-01-22T14:36:51.243Z,8.26
2023-01-22T14:39:18.693Z,8.30
2023-01-22T14:41:51.489Z,8.42
2023-01-22T14:44:18.199Z,8.47
2023-01-22T14:46:44.945Z,8.33
2023-01-22T14:49:11.514Z,8.26
2023-01-22T14:54:45.202Z,8.29
2023-01-22T14:57:11.777Z,8.36
2023-01-22T14:59:38.436Z,8.23
2023-01-22T15:02:05.028Z,8.14
2023-01-22T15:04:31.591Z,8.05
2023-01-22T15:06:58.349Z,8.21
2023-01-22T15:09:25.272Z,8.30
2023-01-22T15:11:51.881Z,8.18
2023-01-22T15:14:18.457Z,8.21
2023-01-22T15:16:45.153Z,8.03
2023-01-22T15:19:11.797Z,8.03
2023-01-22T15:21:38.444Z,8.16
2023-01-22T15:24:05.236Z,8.32
2023-01-22T15:26:35.373Z,8.29
2023-01-22T15:29:03.542Z,8.30
2023-01-22T15:31:30.871Z,8.36
2023-01-22T15:33:59.959Z,8.29
2023-01-22T15:36:28.275Z,8.16
2023-01-22T15:38:56.818Z,7.92
2023-01-22T15:41:28.702Z,8.17
2023-01-22T15:44:01.239Z,8.26
2023-01-22T15:46:30.463Z,8.20
2023-01-22T15:48:58.822Z,8.17
2023-01-22T15:51:26.553Z,7.87
2023-01-22T15:53:59.149Z,8.01
2023-01-22T15:56:29.083Z,7.92
2023-01-22T15:58:56.915Z,7.96
2023-01-22T16:01:24.521Z,7.96
2023-01-22T16:03:51.511Z,7.90
2023-01-22T16:06:22.461Z,7.96
2023-01-22T16:08:51.404Z,8.00
2023-01-22T16:11:18.044Z,8.15
2023-01-22T16:13:45.426Z,8.06
2023-01-22T16:16:25.539Z,8.05
2023-01-22T16:18:53.477Z,7.92
2023-01-22T16:21:21.541Z,7.39
2023-01-22T16:23:53.554Z,7.26
2023-01-22T16:26:26.440Z,7.54
2023-01-22T16:29:04.967Z,7.14
2023-01-22T16:31:33.823Z,7.33
2023-01-22T16:34:07.949Z,7.32
2023-01-22T16:36:34.505Z,7.60
2023-01-22T16:39:01.530Z,7.89
2023-01-22T16:41:30.513Z,8.02
2023-01-22T16:44:05.673Z,8.11
2023-01-22T16:46:33.794Z,7.81
2023-01-22T16:49:11.182Z,7.24
2023-01-22T16:51:41.432Z,7.25
2023-01-22T16:54:08.262Z,7.47
2023-01-22T16:56:35.326Z,7.67
2023-01-22T16:59:02.183Z,7.73
2023-01-22T17:01:30.467Z,7.52
2023-01-22T17:03:57.195Z,7.26
2023-01-22T17:06:31.330Z,7.34
2023-01-22T17:08:58.567Z,7.55
2023-01-22T17:11:25.358Z,7.62
2023-01-22T17:13:52.601Z,7.27
2023-01-22T17:16:19.527Z,7.63
2023-01-22T17:18:46.166Z,7.09
2023-01-22T17:21:16.024Z,7.01
2023-01-22T17:23:42.842Z,7.08
2023-01-22T17:26:11.817Z,7.30
2023-01-22T17:28:39.579Z,7.59
2023-01-22T17:31:11.826Z,7.58
2023-01-22T17:33:38.936Z,7.09
2023-01-22T17:36:06.753Z,7.04
2023-01-22T17:38:38.512Z,6.93
2023-01-22T17:41:11.833Z,6.86
2023-01-22T17:43:41.491Z,6.81
2023-01-22T17:46:31.492Z,7.31
2023-01-22T17:49:01.100Z,7.38
2023-01-22T17:51:29.192Z,7.45
2023-01-22T17:53:58.243Z,7.77
2023-01-22T17:56:36.551Z,7.77
2023-01-22T18:02:21.009Z,8.00
2023-01-22T18:04:47.699Z,8.04
2023-01-22T18:07:14.319Z,8.07
2023-01-22T18:09:40.890Z,8.06
2023-01-22T18:12:07.576Z,7.90
2023-01-22T18:14:34.291Z,7.80
2023-01-22T18:17:01.745Z,7.67
2023-01-22T18:19:28.457Z,7.49
2023-01-22T18:21:55.987Z,7.64
2023-01-22T18:24:24.115Z,7.81
2023-01-22T18:26:50.888Z,7.59
2023-01-22T18:29:17.493Z,7.32
2023-01-22T18:31:44.482Z,7.18
2023-01-22T18:34:14.728Z,6.71
2023-01-22T18:36:42.409Z,6.95
2023-01-22T18:39:14.872Z,6.99
2023-01-22T18:41:42.104Z,7.10
2023-01-22T18:44:10.116Z,7.22
2023-01-22T18:46:39.100Z,6.72
2023-01-22T18:49:10.565Z,6.79
2023-01-22T18:51:37.174Z,6.89
2023-01-22T18:54:07.803Z,6.76
2023-01-22T18:56:35.382Z,6.64
2023-01-22T18:59:02.005Z,6.50
2023-01-22T19:01:31.831Z,6.58
2023-01-22T19:04:01.029Z,6.66
2023-01-22T19:06:35.167Z,6.52
2023-01-22T19:09:14.059Z,6.23
2023-01-22T19:11:47.045Z,6.23
2023-01-22T19:14:17.195Z,6.08
2023-01-22T19:16:45.018Z,5.69
2023-01-22T19:19:13.675Z,5.79
2023-01-22T19:21:46.732Z,5.47
2023-01-22T19:24:14.931Z,5.48
2023-01-22T19:26:42.691Z,5.87
2023-01-22T19:29:12.989Z,5.86
2023-01-22T19:31:42.947Z,6.09
2023-01-22T19:34:12.100Z,6.33
2023-01-22T19:36:39.296Z,6.17
2023-01-22T19:39:11.468Z,6.45
2023-01-22T19:41:39.400Z,6.71
2023-01-22T19:44:06.219Z,6.55
2023-01-22T19:46:34.501Z,6.59
2023-01-22T19:49:01.246Z,6.23
2023-01-22T19:51:30.579Z,5.92
2023-01-22T19:54:00.209Z,6.07
2023-01-22T19:56:30.086Z,6.32
2023-01-22T19:59:03.077Z,6.35
2023-01-22T20:01:29.850Z,6.45
2023-01-22T20:03:56.459Z,6.40
2023-01-22T20:06:24.045Z,6.10
2023-01-22T20:08:51.799Z,6.33
2023-01-22T20:11:18.733Z,6.29
2023-01-22T20:13:45.327Z,6.14
2023-01-22T20:16:20.062Z,6.35
2023-01-22T20:18:47.473Z,6.46
2023-01-22T20:21:16.489Z,6.33
2023-01-22T20:23:44.592Z,6.37
2023-01-22T20:26:11.581Z,6.15
2023-01-22T20:28:39.742Z,6.16
2023-01-22T20:31:11.029Z,6.22
2023-01-22T20:33:38.058Z,6.18
2023-01-22T20:36:08.205Z,6.15
2023-01-22T20:38:35.416Z,6.23
2023-01-22T20:41:09.201Z,5.95
2023-01-22T20:43:40.391Z,5.85
2023-01-22T20:56:31.579Z,5.60
2023-01-22T20:59:02.529Z,5.78
2023-01-22T21:05:30.177Z,5.99
2023-01-22T21:07:56.789Z,5.96
2023-01-22T21:10:23.352Z,6.06
2023-01-22T21:12:49.930Z,5.62
2023-01-22T21:15:16.544Z,5.92
2023-01-22T21:17:43.066Z,6.05
2023-01-22T21:20:10.647Z,5.78
2023-01-22T21:22:39.627Z,5.74
2023-01-22T21:25:06.900Z,5.85
2023-01-22T21:27:33.794Z,6.00
2023-01-22T21:30:00.350Z,5.97
2023-01-22T21:32:28.097Z,5.93
2023-01-22T21:34:54.720Z,5.67
2023-01-22T21:37:21.279Z,5.44
2023-01-22T21:39:47.972Z,5.86
2023-01-22T21:42:33.620Z,5.74
2023-01-22T21:45:18.525Z,5.69
2023-01-22T21:47:45.160Z,5.82
2023-01-22T21:55:23.556Z,5.21
2023-01-22T21:57:51.532Z,5.35
2023-01-22T22:00:19.710Z,5.25
2023-01-22T22:02:46.623Z,5.40
2023-01-22T22:05:34.498Z,5.40
2023-01-22T22:11:25.258Z,5.51
2023-01-22T22:13:52.334Z,5.52
2023-01-22T22:16:19.080Z,5.36
2023-01-22T22:18:45.996Z,5.51
2023-01-22T22:21:27.940Z,5.60
2023-01-22T22:23:58.149Z,5.33
2023-01-22T22:26:25.236Z,5.52
2023-01-22T22:28:52.392Z,5.48
2023-01-22T22:31:19.743Z,5.59
2023-01-22T22:33:48.894Z,5.38
2023-01-22T22:36:46.702Z,5.49
2023-01-22T22:39:28.657Z,5.69
2023-01-22T22:41:55.266Z,5.58
2023-01-22T22:44:21.893Z,5.70
2023-01-22T22:50:16.235Z,5.57
2023-01-22T22:52:43.493Z,5.45
2023-01-22T22:55:10.260Z,5.51
2023-01-22T22:57:36.866Z,5.44
2023-01-22T23:00:19.155Z,5.46
2023-01-22T23:02:45.829Z,5.44
2023-01-22T23:10:28.918Z,5.60
2023-01-22T23:13:00.686Z,5.39
2023-01-22T23:15:29.619Z,5.50
2023-01-22T23:17:57.754Z,5.32
2023-01-22T23:21:08.188Z,5.52
2023-01-22T23:24:24.573Z,5.51
2023-01-22T23:27:03.023Z,5.56
2023-01-22T23:29:29.657Z,5.44
2023-01-22T23:31:56.797Z,5.16
2023-01-22T23:34:23.685Z,4.83
2023-01-22T23:37:02.783Z,5.22
2023-01-22T23:39:29.479Z,5.26
2023-01-22T23:41:56.017Z,5.39
2023-01-22T23:44:22.608Z,5.38
2023-01-22T23:46:49.202Z,5.46
2023-01-22T23:49:15.858Z,5.54
2023-01-22T23:51:44.346Z,5.50
2023-01-22T23:54:11.146Z,5.58
2023-01-22T23:56:37.936Z,5.67
2023-01-22T23:59:04.950Z,5.91
